Terminal Aerodrome Forecast
Issued by NWS

Current Version | Previous Version | Text Only | Print | Product List | Glossary On
Versions: 1 2 3 4 5 6 7 8 9 10 11 12 13 14 15 16 17
000
FTUS45 KGJT 251140
TAFCNY
TAF
KCNY 251140Z 2512/2612 14004KT P6SM SCT250
     FM251600 17008KT P6SM BKN200
     FM252000 23015G24KT P6SM VCSH OVC110
     FM260100 27008KT P6SM VCSH OVC100
     FM260600 28006KT P6SM BKN150
     FM261000 29004KT P6SM SCT100=

USA.gov is the U.S. government's official web portal to all federal, state and local government web resources and services.